Pescara - LIBP

Metar : METAR LIBP 210250Z AUTO 20006KT 9999 SCT047/// 01/00 Q1041=

Taf : TAF LIBP 202300Z 2100/2124 VRB05KT 9999 SCT040=

 Scopri come leggere i bollettini codificati...


Storico

LIBP 210250Z AUTO 20006KT 9999 SCT047/// 01/00 Q1041
LIBP 210150Z AUTO 20006KT 9999 NCD 01/00 Q1042
LIBP 210050Z AUTO 21005KT 9999 FEW047/// 01/00 Q1041
LIBP 202350Z AUTO 21003KT 9999 SCT049/// 03/02 Q1042
LIBP 202250Z AUTO 22004KT 9999 FEW210/// 03/01 Q1042
LIBP 202150Z 23004KT 9999 FEW050 04/03 Q1042
LIBP 202050Z 24004KT CAVOK 05/03 Q1041
LIBP 201950Z 22005KT 9999 SCT050 06/03 Q1041
LIBP 201850Z 21005KT 9999 SCT050 07/03 Q1041
LIBP 201750Z VRB02KT CAVOK 07/03 Q1040
LIBP 201650Z VRB01KT CAVOK 08/02 Q1040
LIBP 201550Z 30003KT CAVOK 09/02 Q1039
LIBP 201450Z VRB02KT CAVOK 10/02 Q1039
LIBP 201350Z 33005KT 280V010 CAVOK 10/02 Q1038
LIBP 201250Z 33005KT 290V030 CAVOK 10/02 Q1038
LIBP 201150Z 34006KT 310V010 CAVOK 11/02 Q1038
LIBP 201050Z 33005KT 290V360 9999 FEW050 11/03 Q1038
LIBP 200950Z 23003KT 200V260 9999 FEW050 09/05 Q1038
LIBP 200850Z 21005KT 9999 FEW080 08/06 Q1038
LIBP 200750Z 22004KT 9999 FEW060 06/06 Q1037
LIBP 200650Z 21005KT 9999 FEW050 05/04 Q1036
LIBP 200550Z AUTO 21004KT 9999 SCT044/// BKN067/// 06/05 Q1036
LIBP 200450Z AUTO 23004KT 9999 SCT042/// SCT049/// BKN092/// 06/05 Q1035
LIBP 200350Z AUTO 20005KT 9999 BKN041/// OVC092/// 05/05 Q1035
LIBP 200250Z AUTO 22006KT 9999 FEW047/// SCT092/// 05/05 Q1034
LIBP 200150Z AUTO 22006KT 9999 FEW045/// BKN077/// 06/05 Q1034
LIBP 200050Z AUTO 20006KT 9999 OVC075/// 06/06 Q1033
LIBP 192250Z AUTO 22005KT 9999 -RA OVC035/// 07/06 Q1033
LIBP 192150Z 23004KT 9999 BKN040 07/06 Q1032
LIBP 192050Z 21006KT 9999 BKN055 07/06 Q1031
LIBP 191950Z 25004KT 9999 BKN040 07/06 Q1031
LIBP 191850Z 21005KT 9999 BKN040 07/06 Q1030
LIBP 191750Z 22005KT 9999 BKN050 08/07 Q1029
LIBP 191650Z 20005KT 9999 BKN040 08/06 Q1028
LIBP 191550Z 29003KT 250V340 9999 BKN037 09/06 Q1027
LIBP 191450Z VRB01KT 9999 BKN033 09/06 Q1027
LIBP 191350Z AUTO VRB02KT 9999 OVC037/// 09/06 Q1026
LIBP 191250Z AUTO 24003KT 210V270 9999 -RA OVC042/// 09/07 Q1025
LIBP 191150Z AUTO 23004KT 210V270 9999 BKN029/// OVC087/// 10/07 Q1025
LIBP 191050Z AUTO 22006KT 9999 OVC034/// 09/08 Q1025
LIBP 190950Z AUTO 20005KT 9999 BKN035/// OVC066/// 09/08 Q1025
LIBP 190906Z AUTO 22005KT 5000 -RA OVC043/// 08/07 Q1025
LIBP 190852Z AUTO 21007KT 4200 RA BR OVC042/// 07/07 Q1025
LIBP 190850Z AUTO 21007KT 4200 -RA BR OVC042/// 07/07 Q1025
LIBP 190812Z AUTO 21005KT 3100 -RA BR OVC034/// 07/07 Q1024
LIBP 190750Z AUTO 22004KT 2200 -RA BR OVC033/// 07/07 Q1024
LIBP 190650Z AUTO 20004KT 2300 -RA BR OVC020/// 07/06 Q1023
LIBP 190629Z AUTO 21003KT 170V240 3100 DZ BR OVC021/// 06/06 Q1023
LIBP 190612Z AUTO VRB02KT 1300 R22/P1500N +DZ BR OVC023/// 06/06 Q1023
LIBP 190609Z AUTO VRB02KT 1900 +DZ BR OVC023/// 06/06 Q1023
LIBP 190607Z AUTO VRB01KT 1900 DZ BR OVC024/// 06/06 Q1023
LIBP 190550Z AUTO 21004KT 2100 BR OVC025/// 06/06 Q1022
LIBP 190450Z AUTO 22003KT 2000 BR OVC027/// 06/06 Q1022
LIBP 190400Z AUTO 21004KT 1800 -RA BR OVC027/// 06/06 Q1022
LIBP 190350Z AUTO 20004KT 1200 R22/P1500N -RA BR OVC023/// 06/06 Q1022
LIBP 190250Z AUTO VRB01KT 0700 R22/P1500N FG FEW020/// BKN039/// OVC075/// 07/06 Q1022
LIBP 190215Z AUTO 20003KT 1100 R22/P1500N BR BKN038/// OVC067/// 07/06 Q1022
LIBP 190150Z AUTO 22002KT 0550 R22/1400U FG BKN039 OVC081 07/06 Q1022
LIBP 190134Z AUTO VRB02KT 0550 R22/1300D FG BKN039/// BKN083/// 07/07 Q1022
LIBP 190058Z AUTO 24002KT 1400 R22/P1500N BR OVC042/// 07/07 Q1021
LIBP 190050Z AUTO 25003KT 1600 BR OVC041/// 07/07 Q1021
LIBP 190010Z AUTO 24003KT 1400 R22/P1500N BR OVC035/// 08/07 Q1021
LIBP 182350Z AUTO 23002KT 1700 BR OVC034/// 07/07 Q1021
LIBP 182250Z AUTO 21003KT 1200 R22/P1500N BR OVC033/// 07/07 Q1021
LIBP 182216Z AUTO 19002KT 1500 -RA BR FEW016/// OVC031/// 08/07 Q1021
LIBP 182150Z AUTO VRB01KT 1400 R22/P1500N -RA BR SCT016/// BKN041/// OVC055/// 08/07 Q1021
LIBP 182108Z AUTO 22002KT 1900 -RA BR SCT013/// OVC036/// 08/07 Q1021 RERA
LIBP 182050Z AUTO 23002KT 1800 -RA BR BKN013/// BKN024/// BKN049/// 08/07 Q1021 RERA
LIBP 182011Z AUTO 23002KT 2400 RA SCT017/// OVC048/// 08/08 Q1021
LIBP 181950Z AUTO 23003KT 2400 -RA BR FEW008/// OVC047/// 08/07 Q1021 RERA
LIBP 181926Z AUTO VRB01KT 4900 -RA BR BKN008/// OVC049/// 08/08 Q1021 RERA
LIBP 181850Z AUTO 33004KT 280V010 6000 RA BKN008/// OVC054/// 08/07 Q1021
LIBP 181838Z AUTO VRB02KT 8000 RA BKN008/// OVC048/// 08/07 Q1021
LIBP 181833Z AUTO VRB01KT 9000 -RA BKN008/// OVC048/// 08/07 Q1021
LIBP 181829Z AUTO VRB01KT 9999 -RA SCT009/// OVC048/// 08/07 Q1021
LIBP 181803Z AUTO 34003KT 280V040 9999 -RA BKN009/// OVC021/// 09/07 Q1021
LIBP 181753Z AUTO 29003KT 210V010 9999 -RA BKN010/// BKN021/// OVC050/// 09/07 Q1021
LIBP 181750Z AUTO 29003KT 210V010 9999 -RA SCT010/// BKN021/// OVC051/// 09/07 Q1021
LIBP 181704Z AUTO 34004KT 280V030 7000 FEW008/// BKN055/// 09/07 Q1021
LIBP 181650Z AUTO 34006KT 310V030 8000 BKN054/// BKN068/// 09/07 Q1020
LIBP 181625Z AUTO 34006KT 300V020 8000 DZ OVC053/// 09/07 Q1020
LIBP 181550Z AUTO 35007KT 310V020 9999 OVC054/// 10/07 Q1020
LIBP 181450Z AUTO 03004KT 340V070 9999 -RA BKN036/// 11/08 Q1019
LIBP 181350Z 01007KT 9999 FEW050 BKN070 12/05 Q1019
LIBP 181250Z 05008KT 9999 BKN075 14/02 Q1018
LIBP 181050Z 05004KT CAVOK 15/03 Q1020
LIBP 180950Z VRB02KT 9999 SCT100 12/03 Q1021
LIBP 180850Z 17002KT 9999 BKN090 09/03 Q1021
LIBP 180750Z VRB01KT 9999 BKN090 08/03 Q1021
LIBP 180650Z VRB01KT 9999 FEW100 05/01 Q1021
LIBP 180550Z AUTO 22005KT 9999 BKN076/// 07/01 Q1021
LIBP 180450Z AUTO 23003KT 190V250 9999 BKN065/// 04/01 Q1022
LIBP 180350Z AUTO 21004KT 9999 OVC061/// 04/02 Q1022
LIBP 180250Z AUTO 21004KT 9999 BKN061/// 02/01 Q1023
LIBP 180150Z AUTO 21005KT 9999 NCD 01/M00 Q1023
LIBP 180050Z AUTO 21004KT 9000 SCT230/// 01/00 Q1023
LIBP 172350Z AUTO 20003KT 9999 BKN230/// 02/00 Q1024
LIBP 172250Z AUTO 22004KT 9999 FEW240/// 02/00 Q1024
LIBP 172150Z 23004KT CAVOK 03/01 Q1025
LIBP 172050Z 20006KT 180V250 CAVOK 03/01 Q1026
LIBP 171950Z 23003KT CAVOK 04/02 Q1026
LIBP 171850Z 21003KT CAVOK 04/02 Q1026
LIBP 171750Z 21003KT CAVOK 05/02 Q1026
LIBP 171650Z 33003KT CAVOK 08/02 Q1025
LIBP 171550Z 02004KT CAVOK 10/02 Q1025
LIBP 171450Z 03005KT CAVOK 12/04 Q1024
LIBP 171350Z 04006KT CAVOK 13/05 Q1025
LIBP 171250Z 04007KT CAVOK 13/04 Q1025
LIBP 171150Z 17003KT 120V230 CAVOK 14/01 Q1026
LIBP 171050Z 22005KT 190V250 CAVOK 13/02 Q1026
LIBP 170950Z 22006KT CAVOK 09/02 Q1027

Informazioni elaborate utilizzando, tra l’altro, dati e prodotti del Servizio Meteorologico dell’Aeronautica Militare pubblicati sul sito www.meteoam.it e della National Oceanic and Atmospheric Administration (NOAA)

Ultimi caricamenti...


I-NEWT 6 06 2019

 


MM62268 (GF-11) Guardia di Finanza Piaggio P166 DP1

 


G-IRTY Boultbee Flight Academy Vickers Supermarine Spitfire LF.IXc

Questo sito non utilizza cookie di profilazione. Il sito utilizza cookie tecnici, di analisi anonima di prima parte e di terze parti per servizi di social network.